ハルビン の空港の天気 - METARとTAF

ハルビン太平国際空港 ( ZYHB / HRB ) - 中国 黒竜江省ハルビン市
飛行場実況気象(Metar)
観測時間04/21 23:00 CST (04/21 15:00 UTC)
風向・風速南南東 4m/s
視程10km以上
天気現象
なし
気温5℃
湿度28%
気圧1014hPa
METARZYHB 211500Z 16004MPS CAVOK 05/M12 Q1014 NOSIG
過去の天気等 Google飛行場航空写真 Wunderground天気予報

過去48時間のMETAR

飛行場予報(TAF)
発表時間: 4/21 17:22 CST (4/21 09:22 UTC)
予報対象時間: 21日20時 CST ~ 22日20時 CST
風向・風速東南東 4m/s 瞬間風速 10m/s
視程6000m
少しの雲 雲底高度 910m
22日8時 CST ~ 22日10時 CST に徐々に
風向・風速南 12m/s 瞬間風速 17m/s
TAF ZYHB 210922Z 2112/2212 11004G10MPS 6000 FEW030 TX20/2206Z TN03/2121Z
BECMG 2200/2202 18012G17MPS